Time;durP1;ratioP1;P1;durP2;ratioP2;P2;SDS_P1;SDS_P2;PMS_P1;PMS_P2;Temp;Humidity;BMP_temperature;BMP_pressure;BME280_temperature;BME280_humidity;BME280_pressure;Samples;Min_cycle;Max_cycle;Signal;HPM_P1;HPM_P2
2023/03/19 00:02:01;;;;;;;11.07;7.40;;;16.80;49.20;;;;;;5053912;28;20482;-43
2023/03/19 00:04:27;;;;;;;8.13;6.77;;;16.80;49.20;;;;;;5053586;28;20932;-43
2023/03/19 00:06:53;;;;;;;7.53;6.50;;;16.70;49.50;;;;;;5052149;28;20247;-43
2023/03/19 00:09:20;;;;;;;7.93;7.13;;;16.60;49.50;;;;;;5053717;28;20438;-47
2023/03/19 00:11:46;;;;;;;9.03;6.80;;;16.60;49.60;;;;;;5053907;28;20204;-44
2023/03/19 00:14:12;;;;;;;7.33;6.60;;;16.60;49.60;;;;;;5053349;28;20419;-43
2023/03/19 00:16:37;;;;;;;11.00;7.73;;;16.60;49.60;;;;;;5053577;28;20423;-42
2023/03/19 00:19:03;;;;;;;8.23;6.80;;;16.60;49.60;;;;;;5053381;28;20200;-42
2023/03/19 00:21:30;;;;;;;8.70;6.57;;;16.60;49.60;;;;;;5053534;28;20227;-42
2023/03/19 00:23:59;;;;;;;10.00;7.70;;;16.60;49.60;;;;;;5053184;28;20204;-43
2023/03/19 00:26:26;;;;;;;8.67;7.27;;;16.60;49.70;;;;;;5053365;28;20521;-43
2023/03/19 00:28:52;;;;;;;11.30;8.10;;;16.60;49.60;;;;;;5053207;28;20788;-42
2023/03/19 00:31:17;;;;;;;7.07;6.37;;;16.60;49.80;;;;;;5053344;28;20422;-43
2023/03/19 00:33:43;;;;;;;10.73;7.80;;;16.60;49.90;;;;;;5051242;28;20754;-42
2023/03/19 00:36:09;;;;;;;11.20;7.30;;;16.40;50.20;;;;;;5053295;28;20193;-42
2023/03/19 00:38:35;;;;;;;8.63;7.40;;;16.30;50.50;;;;;;5053123;28;20286;-42
2023/03/19 00:41:02;;;;;;;10.83;7.90;;;16.30;50.50;;;;;;5053178;28;20550;-42
2023/03/19 00:43:27;;;;;;;10.10;7.80;;;16.30;50.60;;;;;;5052849;28;20196;-44
2023/03/19 00:45:53;;;;;;;12.30;7.40;;;16.40;50.60;;;;;;5053454;28;20426;-45
2023/03/19 00:48:20;;;;;;;10.77;7.47;;;16.20;50.80;;;;;;5053063;28;20200;-43
2023/03/19 00:50:46;;;;;;;12.93;8.80;;;16.10;51.00;;;;;;5052870;28;20201;-43
2023/03/19 00:53:12;;;;;;;11.60;7.97;;;16.20;51.00;;;;;;5051723;28;20426;-42
2023/03/19 00:55:37;;;;;;;15.77;7.53;;;16.20;50.90;;;;;;5052745;28;20467;-45
2023/03/19 00:58:03;;;;;;;8.60;7.70;;;16.20;50.90;;;;;;5052897;28;20191;-44
2023/03/19 01:00:29;;;;;;;11.10;8.30;;;16.20;51.00;;;;;;5051177;28;20625;-46
2023/03/19 01:02:54;;;;;;;8.43;6.90;;;16.30;51.00;;;;;;5052699;28;20840;-44
2023/03/19 01:05:20;;;;;;;8.57;7.70;;;16.30;50.90;;;;;;5052311;28;20295;-48
2023/03/19 01:07:45;;;;;;;11.13;7.70;;;16.30;51.40;;;;;;5052599;28;20562;-43
2023/03/19 01:10:11;;;;;;;9.83;8.00;;;16.20;51.00;;;;;;5052538;28;20193;-47
2023/03/19 01:12:36;;;;;;;10.77;8.07;;;16.10;51.30;;;;;;5052528;28;20263;-43
2023/03/19 01:15:03;;;;;;;8.23;7.43;;;16.10;51.60;;;;;;5052074;28;20196;-43
2023/03/19 01:17:29;;;;;;;10.53;7.60;;;15.80;51.90;;;;;;5052427;28;20236;-44
2023/03/19 01:19:55;;;;;;;7.80;6.90;;;15.80;52.10;;;;;;5052559;28;20423;-45
2023/03/19 01:22:20;;;;;;;11.23;7.60;;;15.90;52.00;;;;;;5052312;28;20243;-45
2023/03/19 01:24:46;;;;;;;10.27;7.90;;;15.80;52.00;;;;;;5051921;28;20819;-43
2023/03/19 01:27:12;;;;;;;9.83;7.50;;;15.80;52.00;;;;;;5050737;28;20319;-44
2023/03/19 01:29:37;;;;;;;8.60;7.30;;;15.60;52.70;;;;;;5052318;28;20185;-43
2023/03/19 01:32:03;;;;;;;7.57;6.70;;;15.10;53.80;;;;;;5052141;28;20656;-43
2023/03/19 01:34:28;;;;;;;10.13;6.80;;;14.80;54.60;;;;;;5052295;28;20603;-44
2023/03/19 01:36:54;;;;;;;7.87;6.40;;;14.60;55.20;;;;;;5052245;28;20197;-42
2023/03/19 01:39:20;;;;;;;7.43;5.90;;;14.80;55.10;;;;;;5052070;28;20915;-47
2023/03/19 01:41:45;;;;;;;9.73;6.87;;;14.80;54.70;;;;;;5051911;28;20224;-43
2023/03/19 01:44:27;;;;;;;7.33;6.33;;;15.00;54.40;;;;;;5051621;28;20192;-42
2023/03/19 01:46:54;;;;;;;9.73;7.23;;;15.10;54.10;;;;;;5052036;28;20216;-42
2023/03/19 01:49:21;;;;;;;11.03;6.47;;;15.30;53.80;;;;;;5051923;28;20518;-46
2023/03/19 01:51:48;;;;;;;7.80;6.20;;;15.40;53.60;;;;;;5052158;28;20429;-45
2023/03/19 01:54:17;;;;;;;11.10;6.57;;;15.40;53.50;;;;;;5049649;28;20827;-42
2023/03/19 01:56:45;;;;;;;7.13;5.93;;;15.50;53.40;;;;;;5038739;28;20419;-44
2023/03/19 01:59:21;;;;;;;7.97;6.67;;;15.50;53.10;;;;;;5051941;28;20428;-43
2023/03/19 02:02:30;;;;;;;8.10;6.10;;;15.50;53.20;;;;;;5051674;28;20514;-42
2023/03/19 02:05:04;;;;;;;11.37;7.43;;;15.70;53.10;;;;;;5041185;28;20541;-43
2023/03/19 02:07:32;;;;;;;8.93;7.10;;;15.70;52.80;;;;;;5051668;28;20481;-42
2023/03/19 02:10:00;;;;;;;10.43;6.83;;;15.80;52.70;;;;;;5051582;28;20514;-45
2023/03/19 02:12:25;;;;;;;8.87;6.23;;;15.80;52.70;;;;;;5051413;28;20466;-42
2023/03/19 02:14:51;;;;;;;8.27;6.97;;;15.90;52.60;;;;;;5051069;28;20922;-47
2023/03/19 02:17:17;;;;;;;7.87;6.50;;;15.90;52.50;;;;;;5051226;28;20203;-48
2023/03/19 02:19:47;;;;;;;7.03;6.03;;;16.00;52.30;;;;;;5049896;28;20191;-43
2023/03/19 02:22:16;;;;;;;6.70;5.63;;;16.00;52.30;;;;;;5051084;28;20274;-43
2023/03/19 02:24:53;;;;;;;8.87;6.23;;;16.00;52.20;;;;;;5050852;28;20415;-43
2023/03/19 02:27:18;;;;;;;9.70;7.50;;;16.10;52.30;;;;;;5051027;28;20434;-43
2023/03/19 02:29:44;;;;;;;7.80;6.77;;;16.10;52.10;;;;;;5051201;28;20431;-44
2023/03/19 02:32:10;;;;;;;8.63;6.73;;;16.10;52.40;;;;;;5051093;28;20557;-43
2023/03/19 02:34:38;;;;;;;7.17;5.87;;;16.10;52.60;;;;;;5032851;28;20279;-43
2023/03/19 02:37:28;;;;;;;9.53;6.80;;;16.10;52.80;;;;;;5050752;28;20200;-43
2023/03/19 02:40:03;;;;;;;8.60;6.13;;;16.10;52.70;;;;;;5050894;28;20431;-43
2023/03/19 02:42:29;;;;;;;6.67;6.03;;;16.10;52.70;;;;;;5050903;28;20493;-43
2023/03/19 02:44:55;;;;;;;7.23;5.80;;;16.10;52.70;;;;;;5050585;28;20877;-42
2023/03/19 02:47:22;;;;;;;6.60;5.63;;;16.10;52.80;;;;;;5049291;28;20474;-43
2023/03/19 02:49:47;;;;;;;7.27;6.57;;;16.10;52.80;;;;;;5050715;28;20827;-42
2023/03/19 02:52:14;;;;;;;8.80;6.60;;;16.10;52.90;;;;;;5050804;28;20419;-44
2023/03/19 02:54:40;;;;;;;8.33;5.70;;;16.10;52.90;;;;;;5050145;28;20228;-43
2023/03/19 02:57:05;;;;;;;8.03;5.30;;;16.10;52.90;;;;;;5050734;28;20426;-42
2023/03/19 02:59:31;;;;;;;6.63;5.83;;;16.10;52.90;;;;;;5050633;28;20620;-44
2023/03/19 03:01:57;;;;;;;7.87;6.47;;;16.10;53.00;;;;;;5050856;28;20550;-45
2023/03/19 03:04:22;;;;;;;16.30;6.73;;;16.20;53.10;;;;;;5050158;28;20220;-45
2023/03/19 03:06:48;;;;;;;8.90;5.87;;;16.20;53.50;;;;;;5050505;28;20972;-43
2023/03/19 03:09:13;;;;;;;10.20;6.97;;;15.80;55.20;;;;;;5050599;28;20692;-43
2023/03/19 03:11:42;;;;;;;9.07;7.13;;;15.70;55.80;;;;;;5050614;28;20196;-43
2023/03/19 03:14:08;;;;;;;9.10;6.93;;;15.60;56.30;;;;;;5048391;28;20228;-42
2023/03/19 03:16:34;;;;;;;9.47;7.73;;;15.70;56.50;;;;;;5050444;28;20434;-45
2023/03/19 03:19:01;;;;;;;12.90;7.63;;;15.80;56.80;;;;;;5050615;28;20423;-43
2023/03/19 03:21:27;;;;;;;9.00;7.33;;;15.90;57.20;;;;;;5050479;28;20700;-44
2023/03/19 03:23:52;;;;;;;11.80;6.97;;;15.70;57.30;;;;;;5050091;28;20455;-44
2023/03/19 03:26:18;;;;;;;8.63;6.90;;;15.80;57.30;;;;;;5050579;28;20195;-42
2023/03/19 03:28:44;;;;;;;9.40;7.80;;;15.80;56.90;;;;;;5050548;28;20193;-42
2023/03/19 03:31:10;;;;;;;11.37;7.30;;;15.70;56.70;;;;;;5050385;28;20275;-42
2023/03/19 03:33:36;;;;;;;7.80;6.10;;;15.70;57.00;;;;;;5049936;28;20201;-46
2023/03/19 03:36:02;;;;;;;7.87;6.43;;;15.70;57.50;;;;;;5050415;28;20848;-42
2023/03/19 03:38:27;;;;;;;6.90;6.20;;;15.60;57.80;;;;;;5050453;28;20211;-43
2023/03/19 03:40:53;;;;;;;7.43;5.73;;;15.70;57.90;;;;;;5048627;28;20207;-42
2023/03/19 03:43:20;;;;;;;6.40;5.70;;;15.60;57.70;;;;;;5049879;28;20197;-42
2023/03/19 03:45:46;;;;;;;6.80;6.10;;;15.10;58.60;;;;;;5050242;28;20223;-42
2023/03/19 03:48:13;;;;;;;8.07;6.50;;;14.80;59.00;;;;;;5050154;28;20509;-44
2023/03/19 03:50:39;;;;;;;8.27;6.60;;;14.60;59.90;;;;;;5050209;28;20423;-42
2023/03/19 03:53:05;;;;;;;6.87;5.13;;;14.50;60.20;;;;;;5049685;28;20478;-42
2023/03/19 03:55:31;;;;;;;8.50;6.43;;;14.50;59.90;;;;;;5050241;28;20962;-43
2023/03/19 03:57:57;;;;;;;8.03;5.67;;;14.50;60.00;;;;;;5050165;28;20201;-42
2023/03/19 04:00:24;;;;;;;9.40;6.13;;;14.50;60.10;;;;;;5050181;28;20426;-42
2023/03/19 04:02:50;;;;;;;9.07;7.07;;;14.70;59.90;;;;;;5049728;28;20220;-42
2023/03/19 04:05:16;;;;;;;14.70;6.07;;;14.90;59.50;;;;;;5050013;28;20494;-43
2023/03/19 04:07:42;;;;;;;6.93;5.80;;;14.70;59.30;;;;;;5048504;28;20288;-42
2023/03/19 04:10:09;;;;;;;11.00;7.03;;;14.70;59.80;;;;;;5050044;28;20533;-43
2023/03/19 04:12:39;;;;;;;8.07;6.10;;;14.70;59.80;;;;;;5049892;28;20866;-43
2023/03/19 04:15:06;;;;;;;6.77;6.07;;;14.70;59.80;;;;;;5049743;28;20431;-42
2023/03/19 04:17:32;;;;;;;7.60;5.70;;;14.60;59.60;;;;;;5049918;28;20473;-42
2023/03/19 04:19:58;;;;;;;7.13;5.80;;;14.60;59.70;;;;;;5049956;28;20439;-42
2023/03/19 04:22:23;;;;;;;8.13;6.30;;;14.40;59.90;;;;;;5049520;28;20638;-42
2023/03/19 04:24:49;;;;;;;6.60;5.20;;;14.10;61.00;;;;;;5049540;28;20189;-44
2023/03/19 04:27:15;;;;;;;7.50;5.87;;;14.00;61.60;;;;;;5050989;28;20197;-42
2023/03/19 04:29:40;;;;;;;5.97;5.33;;;14.10;61.50;;;;;;5053243;28;20197;-44
2023/03/19 04:32:06;;;;;;;8.67;5.60;;;13.90;61.40;;;;;;5053026;28;20262;-50
2023/03/19 04:34:32;;;;;;;8.93;5.93;;;13.80;62.20;;;;;;5051114;28;20525;-43
2023/03/19 04:36:57;;;;;;;6.90;4.93;;;13.80;62.20;;;;;;5053221;28;20457;-42
2023/03/19 04:39:24;;;;;;;6.47;4.60;;;13.70;62.20;;;;;;5053242;28;20192;-42
2023/03/19 04:41:50;;;;;;;7.67;5.30;;;13.50;63.90;;;;;;5052773;28;20224;-42
2023/03/19 04:44:16;;;;;;;7.80;5.20;;;13.60;63.60;;;;;;5052500;28;20781;-41
2023/03/19 04:46:44;;;;;;;9.40;5.10;;;13.60;63.70;;;;;;5052621;28;20200;-41
2023/03/19 04:49:09;;;;;;;5.53;4.70;;;13.80;63.20;;;;;;5052642;28;20442;-42
2023/03/19 04:51:35;;;;;;;5.27;4.53;;;13.90;63.00;;;;;;5052760;28;20419;-42
2023/03/19 04:54:00;;;;;;;5.80;5.13;;;14.10;62.50;;;;;;5052431;28;20223;-43
2023/03/19 04:56:26;;;;;;;6.80;4.90;;;14.30;61.80;;;;;;5052635;28;20240;-42
2023/03/19 04:58:53;;;;;;;5.33;4.80;;;14.40;61.10;;;;;;5052760;28;20204;-41
2023/03/19 05:01:18;;;;;;;5.23;4.73;;;14.50;60.70;;;;;;5050888;28;20212;-42
2023/03/19 05:03:44;;;;;;;6.67;5.07;;;14.30;61.10;;;;;;5052289;28;20431;-42
2023/03/19 05:06:10;;;;;;;10.83;5.03;;;14.30;61.10;;;;;;5052376;28;20266;-46
2023/03/19 05:08:36;;;;;;;6.40;4.80;;;14.40;61.00;;;;;;5052354;28;20231;-44
2023/03/19 05:11:01;;;;;;;8.00;5.40;;;14.30;61.10;;;;;;5052349;28;20893;-46
2023/03/19 05:13:27;;;;;;;6.50;5.20;;;14.20;61.70;;;;;;5052194;28;20542;-45
2023/03/19 05:15:54;;;;;;;6.27;5.67;;;14.20;62.00;;;;;;5052309;28;20245;-45
2023/03/19 05:18:20;;;;;;;6.90;5.57;;;14.30;61.90;;;;;;5052178;28;20208;-47
2023/03/19 05:20:46;;;;;;;6.27;4.70;;;14.30;61.90;;;;;;5052084;28;20551;-43
2023/03/19 05:23:12;;;;;;;7.63;5.17;;;14.30;61.90;;;;;;5051808;28;20475;-47
2023/03/19 05:25:39;;;;;;;4.73;4.33;;;14.40;61.70;;;;;;5052056;28;20228;-46
2023/03/19 05:28:06;;;;;;;7.20;4.80;;;14.40;61.50;;;;;;5050617;28;20803;-47
2023/03/19 05:30:33;;;;;;;4.73;4.27;;;14.30;61.40;;;;;;5052017;28;20438;-45
2023/03/19 05:32:59;;;;;;;5.80;5.30;;;14.60;60.90;;;;;;5052003;28;20462;-45
2023/03/19 05:35:26;;;;;;;9.03;4.77;;;14.70;60.30;;;;;;5052023;28;20798;-47
2023/03/19 05:37:52;;;;;;;4.83;4.40;;;14.80;59.90;;;;;;5051704;28;20502;-44
2023/03/19 05:40:19;;;;;;;5.90;4.87;;;14.70;60.10;;;;;;5051975;28;20419;-46
2023/03/19 05:42:45;;;;;;;7.93;5.20;;;14.80;60.00;;;;;;5051472;28;20482;-46
2023/03/19 05:45:11;;;;;;;7.27;5.40;;;14.90;59.80;;;;;;5051709;28;20427;-45
2023/03/19 05:47:38;;;;;;;9.30;5.60;;;14.90;59.90;;;;;;5051689;28;20200;-45
2023/03/19 05:50:04;;;;;;;8.10;6.00;;;14.60;61.30;;;;;;5051795;28;20515;-45
2023/03/19 05:52:30;;;;;;;6.07;5.47;;;14.60;61.80;;;;;;5051783;28;20484;-43
2023/03/19 05:54:56;;;;;;;5.87;5.30;;;14.40;62.20;;;;;;5049477;28;20471;-47
2023/03/19 05:57:21;;;;;;;5.70;5.27;;;14.30;62.90;;;;;;5051621;28;20430;-45
2023/03/19 05:59:47;;;;;;;8.03;4.90;;;14.30;63.70;;;;;;5051693;28;20185;-45
2023/03/19 06:02:13;;;;;;;6.77;5.37;;;14.50;62.70;;;;;;5051592;28;20271;-42
2023/03/19 06:04:38;;;;;;;6.50;5.17;;;14.60;62.70;;;;;;5051322;28;20715;-43
2023/03/19 06:07:05;;;;;;;5.93;5.20;;;14.50;62.80;;;;;;5051737;28;20204;-43
2023/03/19 06:09:30;;;;;;;6.60;5.10;;;14.70;62.40;;;;;;5051468;28;20607;-47
2023/03/19 06:11:56;;;;;;;6.90;5.30;;;14.80;62.20;;;;;;5051556;28;20435;-47
2023/03/19 06:14:23;;;;;;;5.40;4.90;;;14.90;61.90;;;;;;5051050;28;20535;-42
2023/03/19 06:16:48;;;;;;;5.70;5.17;;;14.90;61.70;;;;;;5051579;28;20291;-45
2023/03/19 06:19:14;;;;;;;5.97;5.33;;;14.80;61.80;;;;;;5051352;28;20439;-46
2023/03/19 06:21:40;;;;;;;7.20;4.93;;;14.60;62.40;;;;;;5049572;28;20710;-43
2023/03/19 06:24:06;;;;;;;5.10;4.60;;;14.50;62.50;;;;;;5050897;28;20535;-42
2023/03/19 06:26:32;;;;;;;4.90;4.40;;;14.60;62.70;;;;;;5051323;28;20419;-42
2023/03/19 06:28:57;;;;;;;4.17;3.87;;;14.60;62.70;;;;;;5056060;28;20414;-46
2023/03/19 06:31:23;;;;;;;5.67;4.27;;;14.70;62.40;;;;;;5060022;28;20526;-47
2023/03/19 06:33:49;;;;;;;8.90;5.23;;;14.90;62.10;;;;;;5050803;28;20279;-44
2023/03/19 06:36:15;;;;;;;4.60;4.20;;;15.00;61.90;;;;;;5051144;28;20197;-44
2023/03/19 06:38:41;;;;;;;4.50;4.03;;;15.10;61.50;;;;;;5050928;28;20788;-44
2023/03/19 06:41:06;;;;;;;5.67;3.90;;;15.10;61.30;;;;;;5050992;28;20424;-42
2023/03/19 06:43:35;;;;;;;5.57;4.53;;;15.00;61.40;;;;;;5050613;28;20640;-42
2023/03/19 06:46:02;;;;;;;4.93;4.43;;;14.90;62.00;;;;;;5050849;28;20239;-45
2023/03/19 06:48:27;;;;;;;5.67;4.40;;;14.90;62.20;;;;;;5049464;28;20426;-46
2023/03/19 06:50:53;;;;;;;6.40;3.97;;;14.90;62.20;;;;;;5050189;28;20426;-47
2023/03/19 06:53:18;;;;;;;5.87;3.47;;;15.00;61.90;;;;;;5050450;28;20265;-44
2023/03/19 06:55:47;;;;;;;3.87;3.57;;;15.10;61.10;;;;;;5050638;28;20232;-42
2023/03/19 06:58:13;;;;;;;3.80;3.40;;;15.00;60.20;;;;;;5050613;28;20270;-45
2023/03/19 07:00:38;;;;;;;5.67;4.20;;;15.10;59.90;;;;;;5050771;28;20480;-44
2023/03/19 07:03:04;;;;;;;6.07;4.17;;;15.20;58.90;;;;;;5050337;28;20227;-46
2023/03/19 07:05:29;;;;;;;4.50;4.10;;;15.10;59.50;;;;;;5050741;28;20275;-46
2023/03/19 07:07:55;;;;;;;4.20;3.90;;;15.10;60.30;;;;;;5050491;28;20200;-45
2023/03/19 07:10:21;;;;;;;4.80;4.30;;;15.10;60.30;;;;;;5050623;28;20232;-45
2023/03/19 07:12:47;;;;;;;4.80;4.37;;;15.00;61.00;;;;;;5050187;28;20313;-43
2023/03/19 07:15:13;;;;;;;5.70;4.97;;;15.10;61.50;;;;;;5048842;28;20891;-47
2023/03/19 07:17:38;;;;;;;7.13;5.23;;;15.20;61.80;;;;;;5050565;28;20196;-46
2023/03/19 07:20:05;;;;;;;5.40;4.73;;;15.20;62.20;;;;;;5050354;28;20211;-44
2023/03/19 07:22:31;;;;;;;6.10;5.50;;;15.10;63.00;;;;;;5049852;28;20239;-46
2023/03/19 07:24:56;;;;;;;5.60;5.10;;;15.30;62.80;;;;;;5050618;28;20415;-42
2023/03/19 07:27:22;;;;;;;5.70;4.80;;;15.50;62.10;;;;;;5050324;28;20196;-46
2023/03/19 07:29:47;;;;;;;5.03;4.23;;;15.40;61.00;;;;;;5050344;28;20223;-42
2023/03/19 07:32:13;;;;;;;5.30;4.80;;;15.50;61.30;;;;;;5050461;28;20647;-45
2023/03/19 07:34:39;;;;;;;4.57;4.17;;;15.50;61.40;;;;;;5050069;28;20193;-46
2023/03/19 07:37:05;;;;;;;5.60;4.90;;;15.50;61.50;;;;;;5050250;28;20608;-46
2023/03/19 07:39:31;;;;;;;4.80;4.40;;;15.40;61.80;;;;;;5050129;28;20427;-42
2023/03/19 07:41:56;;;;;;;8.67;4.70;;;15.50;61.50;;;;;;5048659;28;20540;-43
2023/03/19 07:44:22;;;;;;;4.60;4.20;;;15.60;61.20;;;;;;5032171;28;20192;-45
2023/03/19 07:46:48;;;;;;;6.27;3.87;;;15.60;60.90;;;;;;5050199;28;20258;-47
2023/03/19 07:49:13;;;;;;;7.53;6.23;;;15.50;60.90;;;;;;5032443;28;20246;-47
2023/03/19 07:51:39;;;;;;;4.97;4.20;;;15.50;61.20;;;;;;5050236;28;20188;-49
2023/03/19 07:54:05;;;;;;;4.80;4.30;;;15.60;61.80;;;;;;5049577;28;20203;-44
2023/03/19 07:56:31;;;;;;;4.20;3.90;;;15.50;61.10;;;;;;5050036;28;20193;-45
2023/03/19 07:58:57;;;;;;;4.63;4.23;;;15.60;61.30;;;;;;5050259;28;20434;-46
2023/03/19 08:01:22;;;;;;;4.93;3.47;;;15.70;60.80;;;;;;5051796;28;20212;-45
2023/03/19 08:03:48;;;;;;;5.23;4.00;;;15.70;61.00;;;;;;5053627;28;20437;-43
2023/03/19 08:06:14;;;;;;;5.87;4.47;;;15.80;60.50;;;;;;5053668;28;20200;-43
2023/03/19 08:08:39;;;;;;;6.70;4.03;;;15.80;60.80;;;;;;5052266;28;20197;-44
2023/03/19 08:11:06;;;;;;;4.70;4.30;;;15.90;60.80;;;;;;5053638;28;20199;-45
2023/03/19 08:13:32;;;;;;;5.90;4.20;;;16.10;60.40;;;;;;5053399;28;20247;-43
2023/03/19 08:15:57;;;;;;;4.77;4.30;;;16.20;60.00;;;;;;5053941;28;20973;-46
2023/03/19 08:18:23;;;;;;;7.93;4.80;;;16.30;60.00;;;;;;5053805;28;20652;-47
2023/03/19 08:20:48;;;;;;;5.17;4.50;;;16.50;59.80;;;;;;5053678;28;20250;-46
2023/03/19 08:23:14;;;;;;;7.07;4.10;;;16.60;59.70;;;;;;5053150;28;20255;-45
2023/03/19 08:25:40;;;;;;;4.20;3.70;;;16.50;58.90;;;;;;5053441;28;20200;-44
2023/03/19 08:28:08;;;;;;;6.87;4.10;;;16.40;59.10;;;;;;5053779;28;20275;-44
2023/03/19 08:30:34;;;;;;;4.20;3.80;;;16.20;59.10;;;;;;5053417;28;21013;-42
2023/03/19 08:33:00;;;;;;;4.10;3.77;;;16.00;60.30;;;;;;5052846;28;20441;-44
2023/03/19 08:35:26;;;;;;;4.27;3.83;;;16.10;61.00;;;;;;5052101;28;20494;-46
2023/03/19 08:37:53;;;;;;;4.63;3.90;;;16.20;61.00;;;;;;5053303;28;20226;-42
2023/03/19 08:40:19;;;;;;;3.53;3.23;;;16.10;60.50;;;;;;5053188;28;20232;-42
2023/03/19 08:42:45;;;;;;;4.20;3.50;;;16.10;60.70;;;;;;5052759;28;20521;-46
2023/03/19 08:45:13;;;;;;;4.30;3.47;;;16.30;60.70;;;;;;5053136;28;20423;-47
2023/03/19 08:47:39;;;;;;;3.83;3.37;;;16.40;60.10;;;;;;5053135;28;20801;-45
2023/03/19 08:50:05;;;;;;;6.43;4.00;;;16.40;60.40;;;;;;5053014;28;20433;-45
2023/03/19 08:52:31;;;;;;;4.00;3.60;;;16.60;60.30;;;;;;5052728;28;20454;-43
2023/03/19 08:54:56;;;;;;;4.67;3.60;;;16.60;59.90;;;;;;5053040;28;20507;-45
2023/03/19 08:57:22;;;;;;;3.80;3.40;;;16.70;59.80;;;;;;5052851;28;20196;-43
2023/03/19 08:59:48;;;;;;;8.20;4.00;;;16.60;59.80;;;;;;5052349;28;20251;-44
2023/03/19 09:02:13;;;;;;;5.80;3.67;;;16.60;59.80;;;;;;5051649;28;20231;-43
2023/03/19 09:04:45;;;;;;;3.80;3.50;;;16.80;59.80;;;;;;5052332;28;20591;-46
2023/03/19 09:07:12;;;;;;;4.30;3.90;;;17.10;59.50;;;;;;5052824;28;20193;-44
2023/03/19 09:09:38;;;;;;;6.23;3.70;;;17.10;58.30;;;;;;5052616;28;20447;-46
2023/03/19 09:12:06;;;;;;;4.97;3.47;;;17.10;59.00;;;;;;5052370;28;20435;-46
2023/03/19 09:14:32;;;;;;;3.60;3.30;;;17.10;58.40;;;;;;5051879;28;20980;-43
2023/03/19 09:16:58;;;;;;;3.50;3.20;;;17.00;58.10;;;;;;5052838;28;20427;-43
2023/03/19 09:19:23;;;;;;;4.47;3.33;;;16.90;57.90;;;;;;5052603;28;20851;-43
2023/03/19 09:21:49;;;;;;;3.40;3.10;;;17.00;58.60;;;;;;5052309;28;20323;-45
2023/03/19 09:24:15;;;;;;;5.20;3.50;;;17.00;58.30;;;;;;5051913;28;20192;-43
2023/03/19 09:26:40;;;;;;;3.33;3.03;;;17.10;59.50;;;;;;5051368;28;20203;-44
2023/03/19 09:29:06;;;;;;;3.50;3.20;;;17.50;58.70;;;;;;5051961;28;20195;-43
2023/03/19 09:31:32;;;;;;;3.40;3.10;;;17.80;58.90;;;;;;5052438;28;20196;-43
2023/03/19 09:33:58;;;;;;;3.50;3.20;;;18.10;57.80;;;;;;5051942;28;20415;-44
2023/03/19 09:36:24;;;;;;;3.57;3.27;;;18.20;55.80;;;;;;5052333;28;20258;-46
2023/03/19 09:38:50;;;;;;;4.53;3.10;;;18.30;56.50;;;;;;5051987;28;20652;-43
2023/03/19 09:41:44;;;;;;;2.80;2.60;;;18.70;56.00;;;;;;5052010;28;20434;-43
2023/03/19 09:44:12;;;;;;;3.43;2.03;;;19.10;53.80;;;;;;5051780;28;20430;-43
2023/03/19 09:46:49;;;;;;;2.87;2.40;;;19.20;52.00;;;;;;5052016;28;20427;-46
2023/03/19 09:49:27;;;;;;;3.20;1.90;;;19.50;50.60;;;;;;5051350;28;20449;-47
2023/03/19 09:51:53;;;;;;;4.90;2.30;;;19.50;49.20;;;;;;5038287;28;20454;-46
2023/03/19 09:54:34;;;;;;;6.00;2.17;;;19.20;49.10;;;;;;5039775;28;20451;-44
2023/03/19 09:57:00;;;;;;;3.00;2.23;;;19.10;49.30;;;;;;5038592;28;20192;-44
2023/03/19 09:59:26;;;;;;;4.00;2.30;;;19.10;49.40;;;;;;5043927;28;20435;-45
2023/03/19 10:02:16;;;;;;;5.60;2.20;;;19.20;49.20;;;;;;5036537;28;20233;-46
2023/03/19 10:04:54;;;;;;;4.20;2.50;;;19.60;50.00;;;;;;5035155;28;20451;-47
2023/03/19 10:07:44;;;;;;;2.10;1.70;;;19.80;48.70;;;;;;5044462;28;21323;-46
2023/03/19 10:10:28;;;;;;;3.57;2.60;;;19.90;47.50;;;;;;5033415;28;20455;-47
2023/03/19 10:13:30;;;;;;;5.73;2.93;;;20.20;47.30;;;;;;5037466;28;20644;-48
2023/03/19 10:15:59;;;;;;;3.30;2.37;;;20.60;47.20;;;;;;5040143;28;20949;-48
2023/03/19 10:18:30;;;;;;;6.07;3.10;;;20.40;46.60;;;;;;5040302;28;20452;-49
2023/03/19 10:21:11;;;;;;;4.57;2.60;;;20.70;46.80;;;;;;5043502;28;20923;-46
2023/03/19 10:23:58;;;;;;;3.87;2.53;;;21.10;46.70;;;;;;5042853;28;20451;-45
2023/03/19 10:26:35;;;;;;;4.07;2.37;;;21.30;45.50;;;;;;5035331;28;20458;-44
2023/03/19 10:29:17;;;;;;;4.60;1.83;;;21.60;45.40;;;;;;5040049;28;20454;-47
2023/03/19 10:31:50;;;;;;;2.70;2.30;;;21.90;41.10;;;;;;5047652;28;20457;-44
2023/03/19 10:34:31;;;;;;;2.10;1.77;;;22.00;40.10;;;;;;5038535;28;20454;-44
2023/03/19 10:36:59;;;;;;;2.10;1.90;;;22.10;38.80;;;;;;5040762;28;20977;-45
2023/03/19 10:39:26;;;;;;;3.27;2.10;;;22.30;38.40;;;;;;5037985;28;20435;-47
2023/03/19 10:42:29;;;;;;;2.20;2.00;;;22.20;38.20;;;;;;5044547;28;20585;-47
2023/03/19 10:45:00;;;;;;;3.03;1.50;;;22.20;37.80;;;;;;5040837;28;20474;-46
2023/03/19 10:47:26;;;;;;;4.77;2.20;;;22.50;38.00;;;;;;5040135;28;20473;-49
2023/03/19 10:49:52;;;;;;;3.17;2.17;;;22.60;37.80;;;;;;5039865;28;20467;-43
2023/03/19 10:52:22;;;;;;;2.83;2.00;;;22.70;37.40;;;;;;5036086;28;20189;-44
2023/03/19 10:54:54;;;;;;;3.93;2.20;;;22.80;37.80;;;;;;5043154;28;20252;-45
2023/03/19 10:57:24;;;;;;;6.97;5.00;;;22.90;38.60;;;;;;5041835;28;20448;-43
2023/03/19 10:59:50;;;;;;;2.93;2.53;;;22.90;38.70;;;;;;5046912;28;20435;-46
2023/03/19 11:02:22;;;;;;;2.40;2.20;;;22.90;38.90;;;;;;5043798;28;21137;-46
2023/03/19 11:05:05;;;;;;;2.93;2.53;;;22.80;38.90;;;;;;5042017;28;20952;-43
2023/03/19 11:07:32;;;;;;;2.77;2.57;;;22.50;39.10;;;;;;5038694;28;20443;-46
2023/03/19 11:09:58;;;;;;;3.97;2.30;;;22.50;40.10;;;;;;5052626;28;20547;-44
2023/03/19 11:12:30;;;;;;;3.87;2.43;;;22.70;40.50;;;;;;5052953;28;20443;-48
2023/03/19 11:14:57;;;;;;;2.53;2.33;;;22.90;39.10;;;;;;5043819;28;20457;-47
2023/03/19 11:17:56;;;;;;;2.70;2.50;;;22.80;39.20;;;;;;5031256;28;20447;-47
2023/03/19 11:20:31;;;;;;;3.70;2.80;;;22.90;38.90;;;;;;5037336;28;20440;-46
2023/03/19 11:23:01;;;;;;;4.27;2.50;;;22.80;39.00;;;;;;5043682;28;20483;-47
2023/03/19 11:25:35;;;;;;;2.90;2.53;;;22.80;39.50;;;;;;5043540;28;20450;-48
2023/03/19 11:28:05;;;;;;;4.33;2.07;;;22.80;39.30;;;;;;5031363;28;20458;-47
2023/03/19 11:31:01;;;;;;;2.87;2.63;;;22.90;39.30;;;;;;5045404;28;20450;-44
2023/03/19 11:34:04;;;;;;;2.63;2.13;;;23.10;38.40;;;;;;5042724;28;20447;-43
2023/03/19 11:36:32;;;;;;;2.70;2.50;;;23.10;37.30;;;;;;5033334;28;21004;-43
2023/03/19 11:39:29;;;;;;;2.10;1.90;;;23.20;37.40;;;;;;5043189;28;20444;-43
2023/03/19 11:42:09;;;;;;;2.47;2.13;;;23.30;38.20;;;;;;5047790;28;20496;-45
2023/03/19 11:44:41;;;;;;;2.27;2.07;;;23.40;37.60;;;;;;5043469;28;20446;-49
2023/03/19 11:47:18;;;;;;;3.23;2.60;;;23.60;37.30;;;;;;5046687;28;20906;-45
2023/03/19 11:50:01;;;;;;;2.50;2.00;;;23.50;37.40;;;;;;5050906;28;20431;-49
2023/03/19 11:53:00;;;;;;;3.00;2.17;;;23.40;36.10;;;;;;5048990;28;20849;-46
2023/03/19 11:55:41;;;;;;;2.73;2.20;;;23.40;36.30;;;;;;5045505;28;20490;-45
2023/03/19 11:58:40;;;;;;;3.03;2.00;;;23.40;36.20;;;;;;5039293;28;20452;-48
2023/03/19 12:01:20;;;;;;;3.67;2.20;;;23.10;35.70;;;;;;5038739;28;20431;-46
2023/03/19 12:04:20;;;;;;;7.50;2.60;;;23.10;36.10;;;;;;5043434;28;20475;-43
2023/03/19 12:06:59;;;;;;;4.20;2.23;;;23.20;36.50;;;;;;5011137;28;20475;-49
2023/03/19 12:09:39;;;;;;;2.37;2.17;;;23.10;35.70;;;;;;5044597;28;20460;-47
2023/03/19 12:12:26;;;;;;;2.60;2.20;;;23.10;35.60;;;;;;5052607;28;20446;-44
2023/03/19 12:15:07;;;;;;;3.73;2.17;;;23.10;35.00;;;;;;5045645;28;20551;-46
2023/03/19 12:17:58;;;;;;;3.30;2.40;;;22.90;35.80;;;;;;5049813;28;20500;-44
2023/03/19 12:20:26;;;;;;;4.70;2.10;;;23.10;35.60;;;;;;5050509;28;20455;-46
2023/03/19 12:22:55;;;;;;;2.50;1.93;;;23.30;35.40;;;;;;5047592;28;20485;-45
2023/03/19 12:25:31;;;;;;;5.97;1.80;;;23.50;35.30;;;;;;5052360;28;20438;-50
2023/03/19 12:28:23;;;;;;;3.57;2.23;;;23.80;35.60;;;;;;5046997;28;20440;-47
2023/03/19 12:31:17;;;;;;;3.10;2.03;;;23.90;34.80;;;;;;5046175;28;20447;-46
2023/03/19 12:34:07;;;;;;;2.10;1.77;;;23.70;35.00;;;;;;5036689;28;20443;-44
2023/03/19 12:36:39;;;;;;;3.00;1.80;;;23.80;34.70;;;;;;5042933;28;20439;-45
2023/03/19 12:39:19;;;;;;;5.00;2.27;;;23.70;34.50;;;;;;5048008;28;20468;-44
2023/03/19 12:41:47;;;;;;;4.23;2.40;;;23.50;34.30;;;;;;5037072;28;20502;-43
2023/03/19 12:44:22;;;;;;;3.27;2.40;;;23.00;34.30;;;;;;5050522;28;20490;-44
2023/03/19 12:47:07;;;;;;;3.00;2.13;;;23.00;34.90;;;;;;5042726;28;20439;-43
2023/03/19 12:49:38;;;;;;;2.30;1.93;;;23.00;35.20;;;;;;5038434;28;20462;-44
2023/03/19 12:52:25;;;;;;;1.97;1.57;;;23.10;35.30;;;;;;5041081;28;20440;-48
2023/03/19 12:55:11;;;;;;;3.97;2.13;;;22.90;35.30;;;;;;5047206;28;20601;-47
2023/03/19 12:57:47;;;;;;;3.57;2.20;;;23.10;35.20;;;;;;5043427;28;20455;-44